Decoded Metar for VDPP (PHNOM-PENH in CAMBODIA) (IATA:PNH) | Meteo·Mobile Aviation Weather
aviador You're here:

VDPP Decoded Metar

PHNOM-PENH in CAMBODIA
Report Time2019-07-22 16:30:00
UTC Time2019-07-22 16:43:24
Flight Rules vfr VFR
Wind140° at 04 kt
W.Decomp.*RWY 05: 4.0 kt RCW
Visibility9000 m
Phenomena:N/A
Clouds:Scattered 015 Hf
Scattered 040 Hf
Expected CloudBase > 1,200 ft AGL from Temp-Dew spread
CeilingNone
Temp28°C (ISA +13)
Dew Point25°C (84% RH)
Heat Index32.7°C
QNH1008 hPa
Density Alt2,119 ft
Elevation33 ft
Report Wrong Elevation
Raw Report
VDPP 221630Z 14004KT 120V180 9000 SCT015 SCT040 28/25 Q1008=

Extra information for VDPP:More info

Metar Taf Metar & Taf Last 4 Metars F.Rules Stats Wind Profile Meteogram Temp Stats Airport Information Weather charts Add Link Nearby VenuesMetar ALERT Operation Metar Decoded Social comments